Time;durP1;ratioP1;P1;durP2;ratioP2;P2;SDS_P1;SDS_P2;PMS_P1;PMS_P2;Temp;Humidity;BMP_temperature;BMP_pressure;BME280_temperature;BME280_humidity;BME280_pressure;Samples;Min_cycle;Max_cycle;Signal;HPM_P1;HPM_P2
2023/08/12 00:03:54;;;;;;;10.20;7.03;;;;;;;15.40;84.71;98235.91;10379515;28;20458;-52
2023/08/12 00:08:52;;;;;;;;;;;;;;;15.33;85.00;98232.50;10379758;28;20591;-47
2023/08/12 00:13:51;;;;;;;10.70;7.80;;;;;;;15.34;84.89;98230.75;10378235;28;20341;-51
2023/08/12 00:18:50;;;;;;;;;;;;;;;15.24;85.63;98230.84;10379217;28;20455;-49
2023/08/12 00:23:49;;;;;;;10.45;7.40;;;;;;;15.15;85.52;98206.56;10378690;28;20376;-51
2023/08/12 00:28:49;;;;;;;12.73;8.15;;;;;;;15.21;86.58;98227.44;10378288;28;20067;-51
2023/08/12 00:33:48;;;;;;;10.57;9.25;;;;;;;15.14;87.01;98225.78;10378845;28;20041;-52
2023/08/12 00:38:47;;;;;;;;;;;;;;;15.09;87.65;98225.81;10378639;28;20057;-49
2023/08/12 00:43:46;;;;;;;9.95;8.70;;;;;;;15.02;88.00;98229.41;10377963;28;19908;-48
2023/08/12 00:48:45;;;;;;;;;;;;;;;14.97;87.72;98221.59;10378633;28;20068;-51
2023/08/12 00:53:46;;;;;;;19.83;9.30;;;;;;;14.98;87.73;98219.84;10378426;28;19951;-48
2023/08/12 00:58:45;;;;;;;17.92;10.20;;;;;;;14.70;87.56;98169.63;10375320;28;20048;-51
2023/08/12 01:03:44;;;;;;;13.65;9.73;;;;;;;14.53;89.22;98170.66;10373828;28;20492;-50
2023/08/12 01:08:44;;;;;;;;;;;;;;;14.75;89.80;98215.72;10373905;28;20500;-50
2023/08/12 01:14:07;;;;;;;10.63;9.17;;;;;;;14.53;90.11;98202.00;10373950;28;19952;-48
2023/08/12 01:19:10;;;;;;;11.43;9.43;;;;;;;14.51;90.11;98201.13;10368783;28;20060;-50
2023/08/12 01:24:09;;;;;;;11.40;10.23;;;;;;;14.50;90.45;98219.41;10373432;28;20064;-52
2023/08/12 01:29:08;;;;;;;;;;;;;;;14.43;90.22;98218.63;10374031;28;20484;-51
2023/08/12 01:34:36;;;;;;;11.80;10.50;;;;;;;14.41;90.83;98212.56;10372948;28;19959;-51
2023/08/12 01:39:36;;;;;;;13.88;11.30;;;;;;;14.39;90.56;98217.78;10368331;28;20072;-51
2023/08/12 01:44:35;;;;;;;13.68;11.20;;;;;;;14.37;90.00;98210.84;10373769;28;20077;-50
2023/08/12 01:49:34;;;;;;;;;;;;;;;14.32;90.15;98210.88;10373391;28;20041;-51
2023/08/12 01:54:34;;;;;;;15.70;11.68;;;;;;;14.35;90.52;98210.00;10373182;28;19958;-51
2023/08/12 01:59:33;;;;;;;13.50;10.25;;;;;;;14.31;90.22;98211.78;10373811;28;20073;-52
2023/08/12 02:04:34;;;;;;;13.18;11.52;;;;;;;13.89;90.69;98147.72;10372381;28;20065;-51
2023/08/12 02:09:33;;;;;;;14.30;11.88;;;;;;;14.25;90.87;98203.13;10377403;28;20080;-49
2023/08/12 02:14:32;;;;;;;;;;;;;;;14.23;90.44;98204.88;10381394;28;20033;-51
2023/08/12 02:19:34;;;;;;;13.38;10.38;;;;;;;14.25;90.20;98204.00;10380144;28;19908;-51
2023/08/12 02:24:33;;;;;;;10.82;9.55;;;;;;;14.18;90.25;98202.31;10380255;28;20135;-50
2023/08/12 02:29:32;;;;;;;;;;;;;;;14.13;91.05;98214.53;10380783;28;20043;-50
2023/08/12 02:34:31;;;;;;;12.15;9.93;;;;;;;14.00;90.56;98195.47;10379677;28;19955;-53
2023/08/12 02:39:30;;;;;;;;;;;;;;;14.10;90.34;98214.53;10379068;28;20068;-52
2023/08/12 02:44:29;;;;;;;14.48;9.57;;;;;;;14.13;90.43;98211.94;10379077;28;19912;-51
2023/08/12 02:49:28;;;;;;;14.00;10.43;;;;;;;14.06;90.38;98218.06;10378936;28;20025;-51
2023/08/12 02:54:27;;;;;;;13.35;9.85;;;;;;;13.93;90.65;98196.41;10378642;28;20123;-52
2023/08/12 02:59:27;;;;;;;;;;;;;;;13.96;90.48;98225.06;10380783;28;20384;-53
2023/08/12 03:04:25;;;;;;;12.98;9.35;;;;;;;13.59;90.46;98169.72;10382618;28;19959;-50
2023/08/12 03:09:24;;;;;;;15.73;10.63;;;;;;;13.88;90.39;98219.06;10381423;28;20073;-51
2023/08/12 03:14:23;;;;;;;15.13;11.07;;;;;;;13.87;90.58;98218.22;10381590;28;20041;-50
2023/08/12 03:19:22;;;;;;;14.23;10.05;;;;;;;13.78;90.42;98228.69;10380499;28;20048;-50
2023/08/12 03:24:21;;;;;;;18.75;10.45;;;;;;;13.78;90.49;98229.56;10380169;28;20037;-50
2023/08/12 03:29:20;;;;;;;14.05;11.18;;;;;;;13.44;91.00;98187.13;10381323;28;20036;-51
2023/08/12 03:34:19;;;;;;;17.38;11.77;;;;;;;13.65;91.34;98234.84;10380869;28;20068;-51
2023/08/12 03:39:18;;;;;;;;;;;;;;;13.60;91.39;98239.22;10381078;28;20033;-50
2023/08/12 03:44:17;;;;;;;14.75;11.15;;;;;;;13.56;91.92;98234.03;10380741;28;19915;-49
2023/08/12 03:49:16;;;;;;;14.85;11.02;;;;;;;13.54;91.71;98246.22;10380638;28;20682;-51
2023/08/12 03:54:15;;;;;;;17.15;10.75;;;;;;;13.56;91.99;98246.19;10380091;28;20527;-49
2023/08/12 03:59:14;;;;;;;14.77;12.45;;;;;;;13.56;92.01;98252.28;10378067;28;20497;-49
2023/08/12 04:04:13;;;;;;;;;;;;;;;13.59;91.65;98247.94;10376621;28;20480;-50
2023/08/12 04:09:11;;;;;;;15.10;10.40;;;;;;;13.67;91.62;98256.56;10376090;28;20041;-51
2023/08/12 04:14:10;;;;;;;;;;;;;;;13.67;91.53;98261.78;10376322;28;20443;-52
2023/08/12 04:19:09;;;;;;;11.70;10.40;;;;;;;13.68;91.91;98258.28;10375568;28;19909;-50
2023/08/12 04:24:08;;;;;;;;;;;;;;;13.72;91.42;98252.19;10375749;28;20115;-50
2023/08/12 04:29:07;;;;;;;11.40;9.88;;;;;;;13.79;91.15;98259.09;10375033;28;19912;-49
2023/08/12 04:34:06;;;;;;;;;;;;;;;13.87;90.99;98265.16;10375530;28;20091;-48
2023/08/12 04:39:05;;;;;;;9.90;8.50;;;;;;;13.75;90.95;98229.59;10375017;28;19970;-52
2023/08/12 04:44:04;;;;;;;;;;;;;;;14.01;91.12;98261.56;10375365;28;20057;-50
2023/08/12 04:49:03;;;;;;;10.13;9.10;;;;;;;14.04;90.51;98230.25;10374368;28;19952;-52
2023/08/12 04:54:02;;;;;;;11.30;9.23;;;;;;;14.16;90.24;98266.72;10374287;28;20195;-52
2023/08/12 04:59:01;;;;;;;10.18;7.97;;;;;;;14.22;90.45;98255.34;10374382;28;20056;-51
2023/08/12 05:04:00;;;;;;;;;;;;;;;14.36;89.98;98259.59;10375076;28;20076;-51
2023/08/12 05:08:59;;;;;;;11.98;7.97;;;;;;;14.55;89.67;98259.44;10373741;28;19999;-51
2023/08/12 05:13:58;;;;;;;11.80;8.50;;;;;;;14.68;89.62;98268.88;10367311;28;20484;-51
2023/08/12 05:18:58;;;;;;;11.50;8.57;;;;;;;14.84;89.54;98256.56;10373707;28;20161;-50
2023/08/12 05:23:57;;;;;;;;;;;;;;;15.03;89.72;98257.25;10374209;28;20068;-51
2023/08/12 05:28:56;;;;;;;14.15;8.20;;;;;;;15.35;88.58;98250.78;10373214;28;19970;-52
2023/08/12 05:33:54;;;;;;;;;;;;;;;15.59;88.27;98255.69;10373651;28;20063;-51
2023/08/12 05:38:53;;;;;;;9.57;7.10;;;;;;;15.85;85.06;98247.53;10374209;28;19970;-48
2023/08/12 05:43:52;;;;;;;;;;;;;;;15.98;85.66;98250.84;10376808;28;20136;-50
2023/08/12 05:48:51;;;;;;;15.80;9.18;;;;;;;16.16;84.37;98234.00;10381548;28;19920;-51
2023/08/12 05:53:50;;;;;;;;;;;;;;;16.22;84.09;98243.50;10381409;28;20037;-51
2023/08/12 05:58:48;;;;;;;17.17;15.37;;;;;;;16.34;82.85;98230.19;10382629;28;19947;-49
2023/08/12 06:03:47;;;;;;;;;;;;;;;16.45;82.89;98230.88;10385851;28;20076;-50
2023/08/12 06:08:46;;;;;;;10.45;7.63;;;;;;;16.63;82.64;98242.81;10382886;28;19920;-51
2023/08/12 06:13:45;;;;;;;;;;;;;;;16.81;81.94;98228.53;10384499;28;20033;-51
2023/08/12 06:18:44;;;;;;;10.73;7.37;;;;;;;17.03;80.52;98231.63;10382697;28;20346;-51
2023/08/12 06:23:43;;;;;;;;;;;;;;;17.15;79.38;98230.53;10383792;28;20559;-49
2023/08/12 06:28:42;;;;;;;9.47;5.93;;;;;;;17.23;78.83;98210.22;10383313;28;20311;-50
2023/08/12 06:33:40;;;;;;;9.20;5.80;;;;;;;17.67;76.92;98223.31;10382992;28;20505;-48
2023/08/12 06:38:39;;;;;;;9.10;5.10;;;;;;;17.95;74.34;98210.47;10382040;28;20045;-51
2023/08/12 06:43:38;;;;;;;7.00;5.30;;;;;;;18.23;73.87;98215.91;10382953;28;20025;-50
2023/08/12 06:48:37;;;;;;;6.22;5.15;;;;;;;18.47;71.75;98209.19;10383478;28;20068;-51
2023/08/12 06:53:37;;;;;;;6.47;4.80;;;;;;;18.50;69.36;98209.13;10380235;28;20048;-50
2023/08/12 06:58:36;;;;;;;6.88;4.13;;;;;;;18.77;67.95;98201.44;10380699;28;20064;-51
2023/08/12 07:03:35;;;;;;;6.32;4.20;;;;;;;18.80;66.74;98186.41;10378484;28;20064;-52
2023/08/12 07:08:34;;;;;;;6.60;4.68;;;;;;;19.10;67.50;98199.63;10378375;28;20203;-52
2023/08/12 07:13:33;;;;;;;7.32;4.30;;;;;;;19.47;66.98;98197.72;10378272;28;20553;-51
2023/08/12 07:18:32;;;;;;;6.82;4.45;;;;;;;19.57;63.72;98191.28;10378397;28;20029;-50
2023/08/12 07:23:31;;;;;;;6.40;4.00;;;;;;;19.73;63.23;98194.31;10377527;28;20043;-53
2023/08/12 07:28:30;;;;;;;6.10;4.22;;;;;;;20.06;61.18;98192.38;10378853;28;20045;-50
2023/08/12 07:33:29;;;;;;;6.28;4.28;;;;;;;20.21;60.00;98191.91;10377363;28;20128;-50
2023/08/12 07:38:28;;;;;;;5.40;3.75;;;;;;;20.45;56.42;98189.38;10377498;28;20065;-52
2023/08/12 07:43:27;;;;;;;5.43;3.85;;;;;;;20.65;54.84;98181.63;10376891;28;20067;-50
2023/08/12 07:48:26;;;;;;;7.50;4.43;;;;;;;20.78;54.23;98175.94;10376772;28;20063;-52
2023/08/12 07:53:26;;;;;;;7.55;4.25;;;;;;;21.10;54.19;98167.72;10376308;28;20029;-50
2023/08/12 07:58:25;;;;;;;14.70;5.38;;;;;;;21.41;53.97;98161.31;10376508;28;20068;-49
2023/08/12 08:03:25;;;;;;;5.70;4.00;;;;;;;21.67;51.67;98156.81;10376192;28;20075;-51
2023/08/12 08:08:24;;;;;;;5.75;4.10;;;;;;;22.02;50.72;98160.72;10375538;28;20087;-49
2023/08/12 08:13:23;;;;;;;8.63;4.13;;;;;;;22.09;47.33;98162.16;10375405;28;20036;-52
2023/08/12 08:18:22;;;;;;;4.85;3.45;;;;;;;22.36;47.58;98135.50;10375504;28;20533;-52
2023/08/12 08:23:21;;;;;;;4.80;3.10;;;;;;;22.57;42.52;98157.50;10375711;28;20080;-48
2023/08/12 08:28:19;;;;;;;3.22;2.92;;;;;;;22.84;43.78;98154.63;10375165;28;20029;-51
2023/08/12 08:33:18;;;;;;;6.03;3.10;;;;;;;23.07;44.27;98149.16;10375480;28;20025;-50
2023/08/12 08:38:17;;;;;;;3.53;2.97;;;;;;;23.32;44.75;98142.72;10375135;28;20454;-52
2023/08/12 08:43:21;;;;;;;5.40;3.08;;;;;;;23.40;44.86;98143.25;10375954;28;20060;-49
2023/08/12 08:48:20;;;;;;;4.93;3.40;;;;;;;23.57;44.95;98140.69;10373696;28;20079;-52
2023/08/12 08:53:19;;;;;;;5.38;3.42;;;;;;;23.78;45.23;98143.25;10374216;28;20472;-50
2023/08/12 08:58:19;;;;;;;3.35;3.05;;;;;;;23.83;43.35;98130.63;10374541;28;20063;-50
2023/08/12 09:03:20;;;;;;;4.90;3.33;;;;;;;23.74;42.86;98139.00;10374135;28;20492;-51
2023/08/12 09:08:20;;;;;;;3.40;3.08;;;;;;;23.73;42.72;98127.56;10373455;28;20068;-48
2023/08/12 09:13:18;;;;;;;6.20;3.42;;;;;;;23.98;43.57;98121.94;10373966;28;20065;-50
2023/08/12 09:18:17;;;;;;;3.63;3.10;;;;;;;23.69;42.28;98054.44;10373195;28;20052;-50
2023/08/12 09:23:18;;;;;;;4.47;3.58;;;;;;;24.25;42.85;98122.34;10373539;28;20116;-51
2023/08/12 09:28:17;;;;;;;4.05;3.05;;;;;;;24.16;41.38;98114.81;10373131;28;20488;-51
2023/08/12 09:33:23;;;;;;;4.97;3.20;;;;;;;24.32;42.04;98104.34;10373329;28;20565;-48
2023/08/12 09:38:22;;;;;;;4.68;2.63;;;;;;;24.11;40.35;98060.31;10373257;28;20872;-51
2023/08/12 09:43:27;;;;;;;4.10;2.45;;;;;;;24.24;41.15;98101.25;10373281;28;20515;-53
2023/08/12 09:48:26;;;;;;;4.78;3.13;;;;;;;24.69;40.84;98083.84;10373032;28;20064;-52
2023/08/12 09:53:26;;;;;;;4.88;3.03;;;;;;;24.86;40.21;98073.22;10373166;28;20424;-53
2023/08/12 09:58:29;;;;;;;7.47;2.78;;;;;;;24.84;40.84;98072.41;10372645;28;20463;-49
2023/08/12 10:03:28;;;;;;;5.55;2.97;;;;;;;25.11;40.00;98064.78;10371730;28;20061;-49
2023/08/12 10:08:28;;;;;;;3.75;2.70;;;;;;;25.07;38.42;98070.34;10372365;28;20077;-51
2023/08/12 10:13:28;;;;;;;4.88;2.60;;;;;;;25.14;39.11;98050.47;10372201;28;20052;-51
2023/08/12 10:18:30;;;;;;;4.97;3.25;;;;;;;25.31;38.51;98063.66;10372611;28;20048;-51
2023/08/12 10:23:30;;;;;;;3.40;2.80;;;;;;;25.29;38.27;98039.00;10372007;28;20063;-53
2023/08/12 10:28:31;;;;;;;2.80;2.60;;;;;;;25.39;36.65;98020.72;10374298;28;20091;-52
2023/08/12 10:33:34;;;;;;;3.20;2.90;;;;;;;25.82;36.98;98042.19;10380399;28;20095;-50
2023/08/12 10:38:33;;;;;;;3.15;2.70;;;;;;;25.38;36.46;97963.22;10379687;28;20060;-51
2023/08/12 10:43:49;;;;;;;3.70;2.88;;;;;;;25.99;36.62;98037.69;10378988;28;20068;-50
2023/08/12 10:49:18;;;;;;;3.60;2.50;;;;;;;25.91;36.76;98040.81;10378841;28;20072;-51
2023/08/12 10:54:19;;;;;;;3.08;2.75;;;;;;;26.02;36.70;98042.81;10367484;28;20115;-52
2023/08/12 10:59:53;;;;;;;3.03;2.72;;;;;;;25.99;37.50;98032.38;10380833;28;20053;-50
2023/08/12 11:04:57;;;;;;;3.55;2.55;;;;;;;26.30;36.95;98032.28;10382040;28;20523;-48
2023/08/12 11:10:03;;;;;;;3.55;2.72;;;;;;;26.46;36.30;98024.19;10381810;28;20073;-49
2023/08/12 11:15:06;;;;;;;3.95;2.65;;;;;;;26.59;35.33;97989.72;10381454;28;20060;-51
2023/08/12 11:20:11;;;;;;;3.67;2.80;;;;;;;26.73;35.81;97988.84;10381401;28;20037;-52
2023/08/12 11:25:12;;;;;;;2.90;2.45;;;;;;;26.75;35.31;98006.44;10381224;28;20459;-52
2023/08/12 11:30:15;;;;;;;4.78;2.70;;;;;;;27.08;35.59;98007.09;10381827;28;20067;-53
2023/08/12 11:35:16;;;;;;;4.32;2.67;;;;;;;27.11;35.22;98002.41;10380871;28;20060;-50
2023/08/12 11:40:17;;;;;;;3.97;2.70;;;;;;;27.19;35.12;98004.59;10380215;28;20045;-54
2023/08/12 11:45:18;;;;;;;3.00;2.65;;;;;;;27.29;34.12;98004.84;10374508;28;20076;-52
2023/08/12 11:50:18;;;;;;;3.75;2.50;;;;;;;27.47;34.81;97997.47;10380237;28;20068;-55
2023/08/12 11:55:18;;;;;;;3.53;2.50;;;;;;;27.70;33.20;97999.44;10380513;28;20058;-52
2023/08/12 12:00:18;;;;;;;3.22;2.50;;;;;;;27.48;33.53;97989.38;10378534;28;20507;-52
2023/08/12 12:05:22;;;;;;;2.88;2.35;;;;;;;27.51;33.71;98002.47;10376330;28;20088;-50
2023/08/12 12:10:29;;;;;;;4.20;2.30;;;;;;;27.60;33.05;97985.03;10375981;28;20520;-53
2023/08/12 12:15:28;;;;;;;5.07;2.80;;;;;;;27.73;32.88;97966.38;10375740;28;20076;-53
2023/08/12 12:20:29;;;;;;;3.95;2.50;;;;;;;28.03;33.06;97971.44;10376419;28;20071;-53
2023/08/12 12:25:28;;;;;;;3.10;2.35;;;;;;;28.05;32.29;97972.19;10376313;28;20072;-49
2023/08/12 12:30:27;;;;;;;3.28;2.30;;;;;;;27.49;32.67;97974.22;10375072;28;20045;-53
2023/08/12 12:35:26;;;;;;;3.42;2.42;;;;;;;27.79;33.18;97972.16;10375091;28;20119;-52
2023/08/12 12:40:25;;;;;;;3.78;2.45;;;;;;;28.33;32.68;97959.63;10375190;28;20071;-52
2023/08/12 12:45:25;;;;;;;4.32;2.70;;;;;;;28.64;32.75;97958.31;10374738;28;20033;-49
2023/08/12 12:50:23;;;;;;;5.28;2.75;;;;;;;28.74;31.34;97946.06;10374627;28;20072;-52
2023/08/12 12:55:23;;;;;;;6.05;2.83;;;;;;;28.75;31.49;97949.56;10373191;28;20035;-52
2023/08/12 13:00:21;;;;;;;4.40;2.30;;;;;;;28.59;31.38;97947.13;10374323;28;20072;-51
2023/08/12 13:05:20;;;;;;;3.05;2.58;;;;;;;28.46;32.45;97937.31;10373668;28;20123;-52
2023/08/12 13:10:19;;;;;;;3.58;2.40;;;;;;;28.42;32.24;97937.63;10374423;28;20031;-52
2023/08/12 13:15:18;;;;;;;3.75;2.30;;;;;;;28.60;31.58;97947.00;10373755;28;20439;-50
2023/08/12 13:20:17;;;;;;;3.42;2.47;;;;;;;28.74;30.51;97943.38;10373737;28;20129;-52
2023/08/12 13:25:16;;;;;;;2.67;2.20;;;;;;;28.67;30.61;97929.63;10373850;28;20033;-52
2023/08/12 13:30:15;;;;;;;3.00;2.60;;;;;;;28.47;31.00;97930.16;10373030;28;20024;-52
2023/08/12 13:35:14;;;;;;;3.10;2.40;;;;;;;28.69;30.47;97939.31;10374492;28;20043;-51
2023/08/12 13:40:14;;;;;;;3.92;2.15;;;;;;;28.71;30.32;97932.91;10373539;28;20032;-52
2023/08/12 13:45:14;;;;;;;2.60;2.40;;;;;;;28.17;30.20;97938.50;10373384;28;20499;-52
2023/08/12 13:50:13;;;;;;;3.97;2.63;;;;;;;27.98;30.91;97936.22;10372673;28;20067;-52
2023/08/12 13:55:12;;;;;;;3.67;2.50;;;;;;;27.98;31.47;97933.56;10373197;28;20079;-49
2023/08/12 14:00:13;;;;;;;4.43;2.22;;;;;;;28.10;31.29;97934.56;10373341;28;20029;-52
2023/08/12 14:05:12;;;;;;;2.63;2.35;;;;;;;28.07;31.04;97932.09;10377337;28;20518;-49
2023/08/12 14:10:10;;;;;;;3.10;2.38;;;;;;;27.82;31.06;97931.09;10380871;28;20045;-52
2023/08/12 14:15:10;;;;;;;3.70;2.40;;;;;;;27.66;30.45;97933.97;10380820;28;20067;-52
2023/08/12 14:20:09;;;;;;;3.47;2.40;;;;;;;27.99;29.47;97924.63;10380804;28;20065;-52
2023/08/12 14:25:08;;;;;;;2.63;2.10;;;;;;;27.90;30.15;97887.91;10380039;28;20057;-54
2023/08/12 14:30:08;;;;;;;2.33;2.13;;;;;;;28.00;28.37;97924.50;10380439;28;20516;-50
2023/08/12 14:35:07;;;;;;;2.58;2.38;;;;;;;28.00;28.25;97931.66;10379958;28;20062;-52
2023/08/12 14:40:09;;;;;;;4.40;2.50;;;;;;;28.10;29.18;97895.38;10379793;28;20057;-52
2023/08/12 14:45:08;;;;;;;2.70;2.28;;;;;;;28.28;29.24;97927.09;10379825;28;20076;-50
2023/08/12 14:50:08;;;;;;;3.42;2.47;;;;;;;28.20;30.07;97925.81;10379098;28;20064;-52
2023/08/12 14:55:08;;;;;;;3.13;2.53;;;;;;;28.31;30.06;97916.19;10379238;28;20131;-52
2023/08/12 15:00:10;;;;;;;3.83;2.47;;;;;;;28.12;29.87;97913.97;10379796;28;20068;-51
2023/08/12 15:05:09;;;;;;;3.40;2.67;;;;;;;27.95;30.69;97897.28;10378470;28;20072;-50
2023/08/12 15:10:08;;;;;;;3.90;3.30;;;;;;;28.04;30.37;97904.66;10377631;28;20041;-52
2023/08/12 15:15:08;;;;;;;5.97;2.95;;;;;;;27.70;30.68;97908.78;10376005;28;20072;-52
2023/08/12 15:20:10;;;;;;;5.07;2.83;;;;;;;27.48;30.91;97909.41;10377956;28;20067;-50
2023/08/12 15:25:09;;;;;;;3.55;2.67;;;;;;;27.44;29.88;97907.03;10377384;28;20089;-49
2023/08/12 15:30:08;;;;;;;6.28;2.90;;;;;;;27.15;31.31;97921.31;10377257;28;20033;-51
2023/08/12 15:35:09;;;;;;;4.72;3.00;;;;;;;27.14;32.04;97924.97;10377283;28;20139;-53
2023/08/12 15:40:08;;;;;;;4.03;2.88;;;;;;;27.27;32.50;97921.47;10377203;28;20075;-49
2023/08/12 15:45:08;;;;;;;3.92;3.00;;;;;;;27.08;32.24;97905.88;10376624;28;20067;-51
2023/08/12 15:50:08;;;;;;;5.78;3.30;;;;;;;27.33;32.69;97921.06;10376730;28;20490;-51
2023/08/12 15:55:07;;;;;;;3.63;3.05;;;;;;;26.99;33.01;97921.47;10376634;28;20069;-52
2023/08/12 16:00:08;;;;;;;3.75;3.20;;;;;;;27.09;32.86;97918.22;10378165;28;20028;-51
2023/08/12 16:05:07;;;;;;;5.25;3.33;;;;;;;26.85;33.10;97886.91;10380007;28;20040;-52
2023/08/12 16:10:06;;;;;;;7.35;3.53;;;;;;;26.99;33.16;97923.28;10379643;28;20077;-50
2023/08/12 16:15:06;;;;;;;5.95;4.70;;;;;;;26.93;33.14;97910.38;10378779;28;20067;-52
2023/08/12 16:20:07;;;;;;;6.63;4.95;;;;;;;26.99;33.25;97924.13;10378976;28;20037;-50
2023/08/12 16:25:06;;;;;;;11.18;8.18;;;;;;;26.99;33.53;97924.13;10380215;28;20064;-51
2023/08/12 16:30:07;;;;;;;14.30;10.70;;;;;;;26.86;33.80;97933.91;10378853;28;20064;-52
2023/08/12 16:35:07;;;;;;;11.02;7.63;;;;;;;26.77;33.86;97927.31;10378365;28;20067;-52
2023/08/12 16:40:07;;;;;;;8.73;5.40;;;;;;;26.67;34.11;97928.84;10378180;28;20061;-52
2023/08/12 16:45:07;;;;;;;10.07;6.05;;;;;;;26.71;34.62;97926.84;10377937;28;20067;-50
2023/08/12 16:50:06;;;;;;;7.93;4.82;;;;;;;26.63;35.34;97932.69;10377653;28;20056;-49
2023/08/12 16:55:05;;;;;;;7.43;4.70;;;;;;;26.34;36.93;97918.53;10377556;28;20341;-52
2023/08/12 17:00:05;;;;;;;6.28;4.20;;;;;;;26.31;38.73;97948.84;10369075;28;20064;-52
2023/08/12 17:05:06;;;;;;;8.35;4.50;;;;;;;26.05;39.30;97953.06;10373715;28;20504;-52
2023/08/12 17:10:06;;;;;;;6.28;3.75;;;;;;;25.74;40.30;97941.63;10374423;28;20068;-51
2023/08/12 17:15:05;;;;;;;6.95;4.43;;;;;;;25.43;40.66;97949.66;10373567;28;20067;-52
2023/08/12 17:20:05;;;;;;;7.22;3.90;;;;;;;25.17;41.27;97954.69;10372222;28;20142;-51
2023/08/12 17:25:05;;;;;;;8.80;3.90;;;;;;;24.87;41.89;97958.13;10373956;28;20076;-52
2023/08/12 17:30:05;;;;;;;5.65;4.18;;;;;;;24.56;42.51;97964.22;10372965;28;20068;-52
2023/08/12 17:35:04;;;;;;;6.75;4.15;;;;;;;24.29;42.77;97971.91;10372848;28;20072;-50
2023/08/12 17:40:04;;;;;;;7.68;4.13;;;;;;;24.03;43.24;97975.91;10377393;28;20064;-52
2023/08/12 17:45:04;;;;;;;7.60;4.28;;;;;;;23.74;44.18;97986.19;10381812;28;20478;-49
2023/08/12 17:50:03;;;;;;;8.32;4.45;;;;;;;23.55;44.95;97978.31;10381363;28;20072;-49
2023/08/12 17:55:02;;;;;;;9.50;5.47;;;;;;;23.34;45.14;97985.47;10380836;28;20060;-48
2023/08/12 18:00:02;;;;;;;9.55;5.38;;;;;;;23.15;45.71;97988.19;10381718;28;20064;-50
2023/08/12 18:05:01;;;;;;;8.85;5.30;;;;;;;23.01;46.35;97996.78;10374422;28;20072;-52
2023/08/12 18:10:00;;;;;;;11.70;5.68;;;;;;;22.78;47.25;97997.84;10380592;28;20087;-52
2023/08/12 18:14:59;;;;;;;8.20;5.50;;;;;;;22.55;47.61;98004.19;10380066;28;20146;-53
2023/08/12 18:19:58;;;;;;;8.20;4.90;;;;;;;22.34;48.34;98011.31;10380368;28;20531;-52
2023/08/12 18:24:57;;;;;;;7.78;4.53;;;;;;;22.15;48.77;98016.53;10380154;28;20039;-51
2023/08/12 18:29:56;;;;;;;7.15;4.70;;;;;;;21.96;49.59;98024.34;10379789;28;20460;-50
2023/08/12 18:34:55;;;;;;;8.77;5.10;;;;;;;21.76;50.21;98024.38;10379885;28;20079;-51
2023/08/12 18:39:54;;;;;;;9.82;4.90;;;;;;;21.59;50.29;98021.53;10379283;28;20029;-51
2023/08/12 18:44:53;;;;;;;7.05;5.00;;;;;;;21.23;50.76;98014.22;10379668;28;20036;-51
2023/08/12 18:49:52;;;;;;;6.97;4.97;;;;;;;21.21;50.81;98037.16;10378826;28;20087;-50
2023/08/12 18:54:51;;;;;;;7.80;4.53;;;;;;;21.00;51.11;98042.31;10379502;28;20492;-52
2023/08/12 18:59:50;;;;;;;7.22;4.93;;;;;;;20.96;51.15;98038.09;10381443;28;20052;-50
2023/08/12 19:04:50;;;;;;;8.00;5.07;;;;;;;20.86;51.14;98048.13;10383127;28;20091;-48
2023/08/12 19:09:48;;;;;;;6.32;5.25;;;;;;;20.75;51.67;98038.88;10381648;28;20076;-51
2023/08/12 19:14:47;;;;;;;5.97;5.07;;;;;;;20.66;51.81;98043.59;10381690;28;20108;-50
2023/08/12 19:19:46;;;;;;;9.00;5.35;;;;;;;20.55;52.29;98047.56;10381300;28;20028;-51
2023/08/12 19:24:45;;;;;;;7.05;5.50;;;;;;;20.44;52.85;98054.06;10381944;28;20395;-51
2023/08/12 19:29:44;;;;;;;6.53;4.95;;;;;;;20.33;53.43;98052.69;10380794;28;20115;-49
2023/08/12 19:34:44;;;;;;;8.90;5.38;;;;;;;20.20;53.82;98058.41;10381273;28;20061;-50
2023/08/12 19:39:43;;;;;;;7.30;4.93;;;;;;;20.14;54.35;98060.38;10381066;28;20068;-50
2023/08/12 19:44:42;;;;;;;8.60;4.93;;;;;;;20.02;54.57;98064.31;10380311;28;20032;-49
2023/08/12 19:49:40;;;;;;;7.85;4.80;;;;;;;19.95;54.81;98068.91;10379994;28;20587;-50
2023/08/12 19:54:39;;;;;;;11.52;5.90;;;;;;;19.84;55.46;98065.81;10379998;28;20459;-51
2023/08/12 19:59:38;;;;;;;9.80;6.53;;;;;;;19.65;56.35;98055.88;10379037;28;20135;-51
2023/08/12 20:04:37;;;;;;;9.43;5.65;;;;;;;19.65;57.04;98066.41;10375551;28;20072;-51
2023/08/12 20:09:36;;;;;;;8.80;5.22;;;;;;;19.58;57.10;98075.41;10375646;28;20144;-50
2023/08/12 20:14:35;;;;;;;10.35;5.80;;;;;;;19.49;57.43;98067.78;10374798;28;20040;-50
2023/08/12 20:19:34;;;;;;;6.93;5.05;;;;;;;19.43;57.83;98084.63;10376056;28;20052;-50
2023/08/12 20:24:33;;;;;;;7.90;5.53;;;;;;;19.39;58.41;98077.75;10375443;28;20070;-52
2023/08/12 20:29:32;;;;;;;8.25;5.47;;;;;;;19.32;59.21;98078.84;10375523;28;20032;-52
2023/08/12 20:34:31;;;;;;;11.23;6.88;;;;;;;19.25;62.63;98087.81;10375257;28;20462;-52
2023/08/12 20:39:31;;;;;;;9.98;7.18;;;;;;;19.07;64.37;98085.75;10373771;28;20468;-49
2023/08/12 20:44:30;;;;;;;12.05;8.07;;;;;;;18.99;65.26;98086.84;10368248;28;20578;-50
2023/08/12 20:49:29;;;;;;;11.13;7.20;;;;;;;18.89;65.27;98085.38;10374258;28;20514;-50
2023/08/12 20:54:28;;;;;;;10.50;7.90;;;;;;;18.73;65.74;98073.59;10374206;28;20112;-52
2023/08/12 20:59:28;;;;;;;12.35;7.55;;;;;;;18.74;66.30;98084.06;10374076;28;20025;-49
2023/08/12 21:04:27;;;;;;;11.48;7.40;;;;;;;18.66;67.77;98088.63;10373864;28;20063;-52
2023/08/12 21:09:27;;;;;;;9.95;7.30;;;;;;;18.59;67.95;98098.44;10372982;28;20072;-51
2023/08/12 21:14:26;;;;;;;10.18;7.47;;;;;;;18.63;67.79;98093.13;10372540;28;20057;-51
2023/08/12 21:19:25;;;;;;;14.18;9.20;;;;;;;18.48;70.03;98104.91;10373212;28;20107;-52
2023/08/12 21:24:24;;;;;;;14.32;10.13;;;;;;;18.39;70.41;98101.66;10373278;28;20020;-51
2023/08/12 21:29:23;;;;;;;13.82;9.32;;;;;;;18.37;70.09;98105.22;10373380;28;20468;-52
2023/08/12 21:34:22;;;;;;;10.38;6.75;;;;;;;18.12;70.30;98087.47;10374146;28;20460;-50
2023/08/12 21:39:21;;;;;;;8.48;6.72;;;;;;;18.19;69.94;98107.41;10372992;28;20028;-49
2023/08/12 21:44:20;;;;;;;13.13;6.95;;;;;;;18.08;70.22;98101.59;10371998;28;20060;-51
2023/08/12 21:49:19;;;;;;;10.52;7.68;;;;;;;18.01;70.87;98093.91;10372517;28;20017;-51
2023/08/12 21:54:20;;;;;;;8.45;7.00;;;;;;;17.97;70.99;98093.13;10372892;28;20033;-55
2023/08/12 21:59:19;;;;;;;9.07;6.93;;;;;;;18.00;71.09;98107.94;10366114;28;20056;-53
2023/08/12 22:04:18;;;;;;;12.50;8.10;;;;;;;17.91;73.00;98104.63;10373352;28;20037;-50
2023/08/12 22:09:17;;;;;;;12.23;7.90;;;;;;;17.79;73.17;98107.56;10371740;28;20434;-53
2023/08/12 22:14:16;;;;;;;11.98;8.60;;;;;;;17.63;73.21;98085.19;10373235;28;20075;-53
2023/08/12 22:19:15;;;;;;;11.60;8.55;;;;;;;17.66;73.70;98100.84;10373081;28;20029;-52
2023/08/12 22:24:13;;;;;;;12.55;7.65;;;;;;;17.60;73.91;98104.50;10373989;28;20063;-52
2023/08/12 22:29:14;;;;;;;11.55;8.00;;;;;;;17.57;74.50;98104.56;10379709;28;20123;-50
2023/08/12 22:34:13;;;;;;;12.52;8.50;;;;;;;17.47;74.91;98096.06;10380151;28;20083;-52
2023/08/12 22:39:12;;;;;;;10.05;8.25;;;;;;;17.44;74.89;98097.88;10379431;28;20056;-50
2023/08/12 22:44:11;;;;;;;13.32;8.77;;;;;;;17.38;75.73;98100.63;10378966;28;20039;-51
2023/08/12 22:49:10;;;;;;;;;;;;;;;17.28;76.48;98092.97;10378879;28;20045;-50
2023/08/12 22:54:09;;;;;;;11.23;8.63;;;;;;;17.12;76.75;98074.13;10379493;28;20359;-52
2023/08/12 22:59:08;;;;;;;10.15;7.97;;;;;;;17.12;77.36;98100.34;10378974;28;20061;-52
2023/08/12 23:04:07;;;;;;;9.98;7.93;;;;;;;16.95;77.41;98068.34;10378574;28;20029;-50
2023/08/12 23:09:06;;;;;;;12.02;7.65;;;;;;;17.11;77.38;98092.50;10377730;28;20052;-52
2023/08/12 23:14:05;;;;;;;;;;;;;;;17.12;78.37;98096.81;10372250;28;20056;-53
2023/08/12 23:19:04;;;;;;;11.50;8.07;;;;;;;16.96;79.11;98085.84;10378386;28;20368;-53
2023/08/12 23:24:03;;;;;;;;;;;;;;;16.89;79.15;98087.72;10378852;28;20376;-50